sensor_id;sensor_type;location;lat;lon;timestamp;P1;durP1;ratioP1;P2;durP2;ratioP2
5912;SDS011;2982;42.684;23.356;2022-10-31T00:01:09;5.45;;;2.38;;
5912;SDS011;2982;42.684;23.356;2022-10-31T00:03:38;4.55;;;2.42;;
5912;SDS011;2982;42.684;23.356;2022-10-31T00:06:04;3.88;;;3.00;;
5912;SDS011;2982;42.684;23.356;2022-10-31T00:08:29;2.75;;;2.55;;
5912;SDS011;2982;42.684;23.356;2022-10-31T00:10:54;7.10;;;2.28;;
5912;SDS011;2982;42.684;23.356;2022-10-31T00:13:20;3.58;;;2.60;;
5912;SDS011;2982;42.684;23.356;2022-10-31T00:15:45;8.13;;;2.97;;
5912;SDS011;2982;42.684;23.356;2022-10-31T00:18:10;3.15;;;2.67;;
5912;SDS011;2982;42.684;23.356;2022-10-31T00:20:36;2.90;;;2.60;;
5912;SDS011;2982;42.684;23.356;2022-10-31T00:23:02;3.03;;;2.72;;
5912;SDS011;2982;42.684;23.356;2022-10-31T00:25:28;3.17;;;2.90;;
5912;SDS011;2982;42.684;23.356;2022-10-31T00:27:57;2.95;;;2.63;;
5912;SDS011;2982;42.684;23.356;2022-10-31T00:30:22;6.07;;;2.85;;
5912;SDS011;2982;42.684;23.356;2022-10-31T00:32:48;3.92;;;2.78;;
5912;SDS011;2982;42.684;23.356;2022-10-31T00:35:13;2.67;;;2.35;;
5912;SDS011;2982;42.684;23.356;2022-10-31T00:37:38;7.75;;;3.00;;
5912;SDS011;2982;42.684;23.356;2022-10-31T00:40:04;3.65;;;2.40;;
5912;SDS011;2982;42.684;23.356;2022-10-31T00:42:29;3.65;;;2.88;;
5912;SDS011;2982;42.684;23.356;2022-10-31T00:44:55;4.35;;;2.55;;
5912;SDS011;2982;42.684;23.356;2022-10-31T00:47:20;4.80;;;3.67;;
5912;SDS011;2982;42.684;23.356;2022-10-31T00:49:45;4.00;;;3.05;;
5912;SDS011;2982;42.684;23.356;2022-10-31T00:52:10;4.32;;;2.95;;
5912;SDS011;2982;42.684;23.356;2022-10-31T00:54:36;5.25;;;2.45;;
5912;SDS011;2982;42.684;23.356;2022-10-31T00:57:01;3.25;;;2.80;;
5912;SDS011;2982;42.684;23.356;2022-10-31T00:59:26;3.25;;;2.95;;
5912;SDS011;2982;42.684;23.356;2022-10-31T01:01:51;2.70;;;2.50;;
5912;SDS011;2982;42.684;23.356;2022-10-31T01:04:17;3.33;;;2.85;;
5912;SDS011;2982;42.684;23.356;2022-10-31T01:06:42;3.55;;;3.25;;
5912;SDS011;2982;42.684;23.356;2022-10-31T01:09:07;6.60;;;3.22;;
5912;SDS011;2982;42.684;23.356;2022-10-31T01:11:33;7.18;;;2.72;;
5912;SDS011;2982;42.684;23.356;2022-10-31T01:13:58;4.22;;;2.50;;
5912;SDS011;2982;42.684;23.356;2022-10-31T01:16:24;2.78;;;2.58;;
5912;SDS011;2982;42.684;23.356;2022-10-31T01:18:51;3.78;;;3.25;;
5912;SDS011;2982;42.684;23.356;2022-10-31T01:21:18;4.30;;;3.03;;
5912;SDS011;2982;42.684;23.356;2022-10-31T01:23:45;5.00;;;3.40;;
5912;SDS011;2982;42.684;23.356;2022-10-31T01:26:12;7.85;;;5.13;;
5912;SDS011;2982;42.684;23.356;2022-10-31T01:28:49;6.45;;;5.82;;
5912;SDS011;2982;42.684;23.356;2022-10-31T01:31:17;7.00;;;5.72;;
5912;SDS011;2982;42.684;23.356;2022-10-31T01:33:45;9.18;;;5.60;;
5912;SDS011;2982;42.684;23.356;2022-10-31T01:36:12;6.65;;;6.05;;
5912;SDS011;2982;42.684;23.356;2022-10-31T01:38:42;9.40;;;6.85;;
5912;SDS011;2982;42.684;23.356;2022-10-31T01:41:08;11.07;;;7.65;;
5912;SDS011;2982;42.684;23.356;2022-10-31T01:43:46;9.23;;;6.68;;
5912;SDS011;2982;42.684;23.356;2022-10-31T01:46:12;9.35;;;6.78;;
5912;SDS011;2982;42.684;23.356;2022-10-31T01:48:38;7.63;;;6.50;;
5912;SDS011;2982;42.684;23.356;2022-10-31T01:51:05;10.13;;;7.05;;
5912;SDS011;2982;42.684;23.356;2022-10-31T01:53:31;8.90;;;6.55;;
5912;SDS011;2982;42.684;23.356;2022-10-31T01:55:57;8.52;;;7.25;;
5912;SDS011;2982;42.684;23.356;2022-10-31T01:58:24;8.95;;;6.97;;
5912;SDS011;2982;42.684;23.356;2022-10-31T02:00:54;9.98;;;6.60;;
5912;SDS011;2982;42.684;23.356;2022-10-31T02:03:22;10.32;;;6.65;;
5912;SDS011;2982;42.684;23.356;2022-10-31T02:05:49;9.45;;;6.28;;
5912;SDS011;2982;42.684;23.356;2022-10-31T02:10:57;7.15;;;5.53;;
5912;SDS011;2982;42.684;23.356;2022-10-31T02:13:25;7.30;;;6.45;;
5912;SDS011;2982;42.684;23.356;2022-10-31T02:15:53;6.32;;;5.72;;
5912;SDS011;2982;42.684;23.356;2022-10-31T02:18:20;9.77;;;5.72;;
5912;SDS011;2982;42.684;23.356;2022-10-31T02:20:50;7.63;;;6.10;;
5912;SDS011;2982;42.684;23.356;2022-10-31T02:31:40;7.75;;;6.07;;
5912;SDS011;2982;42.684;23.356;2022-10-31T02:34:21;10.38;;;6.03;;
5912;SDS011;2982;42.684;23.356;2022-10-31T02:36:56;7.78;;;5.32;;
5912;SDS011;2982;42.684;23.356;2022-10-31T02:39:29;7.57;;;4.85;;
5912;SDS011;2982;42.684;23.356;2022-10-31T02:44:39;7.07;;;5.95;;
5912;SDS011;2982;42.684;23.356;2022-10-31T02:47:27;8.93;;;5.80;;
5912;SDS011;2982;42.684;23.356;2022-10-31T02:50:03;6.32;;;5.63;;
5912;SDS011;2982;42.684;23.356;2022-10-31T02:52:34;8.90;;;5.80;;
5912;SDS011;2982;42.684;23.356;2022-10-31T02:58:02;7.47;;;5.38;;
5912;SDS011;2982;42.684;23.356;2022-10-31T03:00:37;6.97;;;5.90;;
5912;SDS011;2982;42.684;23.356;2022-10-31T03:05:55;6.22;;;5.70;;
5912;SDS011;2982;42.684;23.356;2022-10-31T03:08:30;9.35;;;6.05;;
5912;SDS011;2982;42.684;23.356;2022-10-31T03:11:07;9.50;;;6.53;;
5912;SDS011;2982;42.684;23.356;2022-10-31T03:21:39;10.90;;;6.18;;
5912;SDS011;2982;42.684;23.356;2022-10-31T03:24:08;8.38;;;5.60;;
5912;SDS011;2982;42.684;23.356;2022-10-31T03:26:39;9.00;;;5.75;;
5912;SDS011;2982;42.684;23.356;2022-10-31T03:29:11;7.28;;;5.95;;
5912;SDS011;2982;42.684;23.356;2022-10-31T03:31:45;10.10;;;5.78;;
5912;SDS011;2982;42.684;23.356;2022-10-31T03:34:14;10.20;;;6.05;;
5912;SDS011;2982;42.684;23.356;2022-10-31T03:36:42;5.68;;;5.22;;
5912;SDS011;2982;42.684;23.356;2022-10-31T03:39:10;8.38;;;5.95;;
5912;SDS011;2982;42.684;23.356;2022-10-31T03:41:41;6.97;;;5.85;;
5912;SDS011;2982;42.684;23.356;2022-10-31T03:44:10;9.27;;;5.53;;
5912;SDS011;2982;42.684;23.356;2022-10-31T03:46:44;9.45;;;5.47;;
5912;SDS011;2982;42.684;23.356;2022-10-31T03:49:09;7.47;;;5.88;;
5912;SDS011;2982;42.684;23.356;2022-10-31T03:54:16;10.05;;;5.05;;
5912;SDS011;2982;42.684;23.356;2022-10-31T03:57:17;12.25;;;5.68;;
5912;SDS011;2982;42.684;23.356;2022-10-31T03:59:51;11.43;;;5.88;;
5912;SDS011;2982;42.684;23.356;2022-10-31T04:02:26;8.35;;;5.53;;
5912;SDS011;2982;42.684;23.356;2022-10-31T04:04:55;13.05;;;5.63;;
5912;SDS011;2982;42.684;23.356;2022-10-31T04:07:21;13.65;;;6.18;;
5912;SDS011;2982;42.684;23.356;2022-10-31T04:09:51;8.40;;;6.28;;
5912;SDS011;2982;42.684;23.356;2022-10-31T04:12:18;8.30;;;6.43;;
5912;SDS011;2982;42.684;23.356;2022-10-31T04:14:46;11.32;;;6.00;;
5912;SDS011;2982;42.684;23.356;2022-10-31T04:17:14;8.90;;;5.93;;
5912;SDS011;2982;42.684;23.356;2022-10-31T04:19:42;10.60;;;6.05;;
5912;SDS011;2982;42.684;23.356;2022-10-31T04:22:08;9.02;;;6.28;;
5912;SDS011;2982;42.684;23.356;2022-10-31T04:24:33;7.30;;;5.72;;
5912;SDS011;2982;42.684;23.356;2022-10-31T04:26:59;8.63;;;7.20;;
5912;SDS011;2982;42.684;23.356;2022-10-31T04:29:24;7.53;;;6.32;;
5912;SDS011;2982;42.684;23.356;2022-10-31T04:31:49;7.15;;;6.25;;
5912;SDS011;2982;42.684;23.356;2022-10-31T04:34:15;10.82;;;6.45;;
5912;SDS011;2982;42.684;23.356;2022-10-31T04:36:40;11.27;;;6.70;;
5912;SDS011;2982;42.684;23.356;2022-10-31T04:39:05;8.73;;;6.05;;
5912;SDS011;2982;42.684;23.356;2022-10-31T04:41:30;11.48;;;6.40;;
5912;SDS011;2982;42.684;23.356;2022-10-31T04:43:56;11.18;;;6.57;;
5912;SDS011;2982;42.684;23.356;2022-10-31T04:46:21;8.88;;;7.20;;
5912;SDS011;2982;42.684;23.356;2022-10-31T04:48:46;12.77;;;7.25;;
5912;SDS011;2982;42.684;23.356;2022-10-31T04:51:12;12.02;;;7.03;;
5912;SDS011;2982;42.684;23.356;2022-10-31T04:53:37;14.00;;;7.55;;
5912;SDS011;2982;42.684;23.356;2022-10-31T04:56:02;15.23;;;7.32;;
5912;SDS011;2982;42.684;23.356;2022-10-31T04:58:28;15.63;;;7.20;;
5912;SDS011;2982;42.684;23.356;2022-10-31T05:00:54;11.15;;;8.55;;
5912;SDS011;2982;42.684;23.356;2022-10-31T05:03:20;15.20;;;7.95;;
5912;SDS011;2982;42.684;23.356;2022-10-31T05:05:46;11.63;;;7.60;;
5912;SDS011;2982;42.684;23.356;2022-10-31T05:08:11;15.52;;;6.90;;
5912;SDS011;2982;42.684;23.356;2022-10-31T05:10:36;17.33;;;8.25;;
5912;SDS011;2982;42.684;23.356;2022-10-31T05:13:02;14.95;;;7.93;;
5912;SDS011;2982;42.684;23.356;2022-10-31T05:15:29;13.50;;;8.82;;
5912;SDS011;2982;42.684;23.356;2022-10-31T05:17:55;15.93;;;8.07;;
5912;SDS011;2982;42.684;23.356;2022-10-31T05:20:21;11.80;;;7.47;;
5912;SDS011;2982;42.684;23.356;2022-10-31T05:22:50;10.77;;;7.65;;
5912;SDS011;2982;42.684;23.356;2022-10-31T05:25:17;14.35;;;8.00;;
5912;SDS011;2982;42.684;23.356;2022-10-31T05:27:44;13.65;;;8.13;;
5912;SDS011;2982;42.684;23.356;2022-10-31T05:30:11;18.35;;;8.77;;
5912;SDS011;2982;42.684;23.356;2022-10-31T05:32:42;14.55;;;7.78;;
5912;SDS011;2982;42.684;23.356;2022-10-31T05:35:10;13.13;;;7.28;;
5912;SDS011;2982;42.684;23.356;2022-10-31T05:37:37;13.68;;;7.43;;
5912;SDS011;2982;42.684;23.356;2022-10-31T05:40:03;16.42;;;7.55;;
5912;SDS011;2982;42.684;23.356;2022-10-31T05:42:30;12.35;;;8.10;;
5912;SDS011;2982;42.684;23.356;2022-10-31T05:44:55;12.13;;;7.93;;
5912;SDS011;2982;42.684;23.356;2022-10-31T05:47:21;15.35;;;7.78;;
5912;SDS011;2982;42.684;23.356;2022-10-31T05:49:46;15.52;;;9.02;;
5912;SDS011;2982;42.684;23.356;2022-10-31T05:52:12;21.15;;;9.98;;
5912;SDS011;2982;42.684;23.356;2022-10-31T05:54:37;15.82;;;10.85;;
5912;SDS011;2982;42.684;23.356;2022-10-31T05:57:03;13.48;;;10.07;;
5912;SDS011;2982;42.684;23.356;2022-10-31T05:59:28;16.95;;;9.77;;
5912;SDS011;2982;42.684;23.356;2022-10-31T06:01:53;15.43;;;10.32;;
5912;SDS011;2982;42.684;23.356;2022-10-31T06:04:18;25.00;;;11.50;;
5912;SDS011;2982;42.684;23.356;2022-10-31T06:06:44;14.27;;;11.05;;
5912;SDS011;2982;42.684;23.356;2022-10-31T06:09:09;21.90;;;12.65;;
5912;SDS011;2982;42.684;23.356;2022-10-31T06:11:34;17.15;;;10.55;;
5912;SDS011;2982;42.684;23.356;2022-10-31T06:14:00;21.33;;;11.25;;
5912;SDS011;2982;42.684;23.356;2022-10-31T06:16:25;19.33;;;10.93;;
5912;SDS011;2982;42.684;23.356;2022-10-31T06:18:50;21.95;;;11.90;;
5912;SDS011;2982;42.684;23.356;2022-10-31T06:21:15;15.98;;;11.02;;
5912;SDS011;2982;42.684;23.356;2022-10-31T06:23:41;21.58;;;13.88;;
5912;SDS011;2982;42.684;23.356;2022-10-31T06:26:06;17.52;;;13.00;;
5912;SDS011;2982;42.684;23.356;2022-10-31T06:28:31;22.83;;;14.82;;
5912;SDS011;2982;42.684;23.356;2022-10-31T06:30:57;18.73;;;12.10;;
5912;SDS011;2982;42.684;23.356;2022-10-31T06:33:22;11.45;;;8.55;;
5912;SDS011;2982;42.684;23.356;2022-10-31T06:35:47;9.77;;;8.60;;
5912;SDS011;2982;42.684;23.356;2022-10-31T06:38:13;12.85;;;8.95;;
5912;SDS011;2982;42.684;23.356;2022-10-31T06:40:38;14.52;;;9.23;;
5912;SDS011;2982;42.684;23.356;2022-10-31T06:43:04;10.18;;;8.85;;
5912;SDS011;2982;42.684;23.356;2022-10-31T06:45:29;13.38;;;8.63;;
5912;SDS011;2982;42.684;23.356;2022-10-31T06:47:54;15.68;;;9.00;;
5912;SDS011;2982;42.684;23.356;2022-10-31T06:50:21;9.88;;;7.90;;
5912;SDS011;2982;42.684;23.356;2022-10-31T06:52:51;11.80;;;7.75;;
5912;SDS011;2982;42.684;23.356;2022-10-31T06:55:20;12.60;;;9.43;;
5912;SDS011;2982;42.684;23.356;2022-10-31T06:57:53;11.82;;;9.55;;
5912;SDS011;2982;42.684;23.356;2022-10-31T07:00:24;19.85;;;9.38;;
5912;SDS011;2982;42.684;23.356;2022-10-31T07:05:18;15.68;;;9.82;;
5912;SDS011;2982;42.684;23.356;2022-10-31T07:07:43;18.73;;;10.18;;
5912;SDS011;2982;42.684;23.356;2022-10-31T07:10:08;15.10;;;9.55;;
5912;SDS011;2982;42.684;23.356;2022-10-31T07:12:34;12.90;;;8.98;;
5912;SDS011;2982;42.684;23.356;2022-10-31T07:14:59;14.48;;;11.18;;
5912;SDS011;2982;42.684;23.356;2022-10-31T07:17:24;15.43;;;10.90;;
5912;SDS011;2982;42.684;23.356;2022-10-31T07:19:50;15.82;;;10.20;;
5912;SDS011;2982;42.684;23.356;2022-10-31T07:22:15;16.27;;;11.25;;
5912;SDS011;2982;42.684;23.356;2022-10-31T07:24:40;14.85;;;11.30;;
5912;SDS011;2982;42.684;23.356;2022-10-31T07:27:05;12.07;;;10.45;;
5912;SDS011;2982;42.684;23.356;2022-10-31T07:29:31;15.60;;;11.73;;
5912;SDS011;2982;42.684;23.356;2022-10-31T07:31:56;14.45;;;10.95;;
5912;SDS011;2982;42.684;23.356;2022-10-31T07:34:21;12.50;;;11.18;;
5912;SDS011;2982;42.684;23.356;2022-10-31T07:36:46;16.58;;;11.65;;
5912;SDS011;2982;42.684;23.356;2022-10-31T07:39:12;15.25;;;11.13;;
5912;SDS011;2982;42.684;23.356;2022-10-31T07:41:37;14.38;;;11.60;;
5912;SDS011;2982;42.684;23.356;2022-10-31T07:44:02;15.90;;;11.10;;
5912;SDS011;2982;42.684;23.356;2022-10-31T07:46:28;16.85;;;11.05;;
5912;SDS011;2982;42.684;23.356;2022-10-31T07:48:53;13.02;;;10.93;;
5912;SDS011;2982;42.684;23.356;2022-10-31T07:51:18;18.67;;;11.05;;
5912;SDS011;2982;42.684;23.356;2022-10-31T07:53:44;15.23;;;11.95;;
5912;SDS011;2982;42.684;23.356;2022-10-31T07:56:09;17.73;;;11.27;;
5912;SDS011;2982;42.684;23.356;2022-10-31T07:58:35;15.57;;;12.13;;
5912;SDS011;2982;42.684;23.356;2022-10-31T08:01:00;13.43;;;11.18;;
5912;SDS011;2982;42.684;23.356;2022-10-31T08:03:25;21.67;;;11.52;;
5912;SDS011;2982;42.684;23.356;2022-10-31T08:05:50;13.82;;;12.00;;
5912;SDS011;2982;42.684;23.356;2022-10-31T08:08:16;14.23;;;11.32;;
5912;SDS011;2982;42.684;23.356;2022-10-31T08:10:41;14.45;;;11.07;;
5912;SDS011;2982;42.684;23.356;2022-10-31T08:13:08;16.95;;;11.20;;
5912;SDS011;2982;42.684;23.356;2022-10-31T08:15:37;20.95;;;12.57;;
5912;SDS011;2982;42.684;23.356;2022-10-31T08:18:03;19.35;;;12.10;;
5912;SDS011;2982;42.684;23.356;2022-10-31T08:20:29;24.45;;;12.82;;
5912;SDS011;2982;42.684;23.356;2022-10-31T08:25:23;18.65;;;12.68;;
5912;SDS011;2982;42.684;23.356;2022-10-31T08:27:50;17.48;;;12.73;;
5912;SDS011;2982;42.684;23.356;2022-10-31T08:30:17;14.73;;;11.45;;
5912;SDS011;2982;42.684;23.356;2022-10-31T08:32:43;15.98;;;12.18;;
5912;SDS011;2982;42.684;23.356;2022-10-31T08:35:08;18.13;;;12.73;;
5912;SDS011;2982;42.684;23.356;2022-10-31T08:37:34;17.70;;;12.98;;
5912;SDS011;2982;42.684;23.356;2022-10-31T08:39:59;15.20;;;11.73;;
5912;SDS011;2982;42.684;23.356;2022-10-31T08:42:24;26.23;;;12.48;;
5912;SDS011;2982;42.684;23.356;2022-10-31T08:44:49;17.55;;;11.75;;
5912;SDS011;2982;42.684;23.356;2022-10-31T08:47:15;47.15;;;13.15;;
5912;SDS011;2982;42.684;23.356;2022-10-31T08:49:40;21.17;;;13.13;;
5912;SDS011;2982;42.684;23.356;2022-10-31T08:52:05;19.05;;;11.93;;
5912;SDS011;2982;42.684;23.356;2022-10-31T08:54:31;13.18;;;11.77;;
5912;SDS011;2982;42.684;23.356;2022-10-31T08:56:56;13.43;;;11.13;;
5912;SDS011;2982;42.684;23.356;2022-10-31T08:59:21;18.10;;;11.40;;
5912;SDS011;2982;42.684;23.356;2022-10-31T09:01:47;15.52;;;11.75;;
5912;SDS011;2982;42.684;23.356;2022-10-31T09:04:12;15.43;;;10.43;;
5912;SDS011;2982;42.684;23.356;2022-10-31T09:06:37;16.58;;;11.30;;
5912;SDS011;2982;42.684;23.356;2022-10-31T09:09:02;16.52;;;11.55;;
5912;SDS011;2982;42.684;23.356;2022-10-31T09:11:29;26.23;;;11.68;;
5912;SDS011;2982;42.684;23.356;2022-10-31T09:13:55;21.80;;;12.98;;
5912;SDS011;2982;42.684;23.356;2022-10-31T09:16:20;19.00;;;11.70;;
5912;SDS011;2982;42.684;23.356;2022-10-31T09:18:46;13.05;;;11.75;;
5912;SDS011;2982;42.684;23.356;2022-10-31T09:21:11;22.90;;;11.75;;
5912;SDS011;2982;42.684;23.356;2022-10-31T09:23:36;16.13;;;11.45;;
5912;SDS011;2982;42.684;23.356;2022-10-31T09:26:01;25.40;;;11.25;;
5912;SDS011;2982;42.684;23.356;2022-10-31T09:28:27;12.88;;;10.20;;
5912;SDS011;2982;42.684;23.356;2022-10-31T09:30:53;17.63;;;10.82;;
5912;SDS011;2982;42.684;23.356;2022-10-31T09:33:19;11.38;;;9.30;;
5912;SDS011;2982;42.684;23.356;2022-10-31T09:35:44;11.52;;;8.95;;
5912;SDS011;2982;42.684;23.356;2022-10-31T09:38:17;14.75;;;9.73;;
5912;SDS011;2982;42.684;23.356;2022-10-31T09:40:49;17.00;;;10.23;;
5912;SDS011;2982;42.684;23.356;2022-10-31T09:52:27;11.38;;;9.93;;
5912;SDS011;2982;42.684;23.356;2022-10-31T09:54:55;13.32;;;10.48;;
5912;SDS011;2982;42.684;23.356;2022-10-31T09:57:25;12.95;;;8.90;;
5912;SDS011;2982;42.684;23.356;2022-10-31T09:59:54;16.60;;;9.35;;
5912;SDS011;2982;42.684;23.356;2022-10-31T10:22:00;8.05;;;7.15;;
5912;SDS011;2982;42.684;23.356;2022-10-31T10:27:41;9.98;;;3.55;;
5912;SDS011;2982;42.684;23.356;2022-10-31T10:30:16;3.38;;;2.90;;
5912;SDS011;2982;42.684;23.356;2022-10-31T10:32:45;7.03;;;3.28;;
5912;SDS011;2982;42.684;23.356;2022-10-31T10:38:08;6.00;;;4.68;;
5912;SDS011;2982;42.684;23.356;2022-10-31T10:40:39;8.65;;;4.25;;
5912;SDS011;2982;42.684;23.356;2022-10-31T10:51:01;5.15;;;4.57;;
5912;SDS011;2982;42.684;23.356;2022-10-31T10:53:40;7.57;;;4.95;;
5912;SDS011;2982;42.684;23.356;2022-10-31T10:56:16;11.23;;;4.80;;
5912;SDS011;2982;42.684;23.356;2022-10-31T10:58:56;9.57;;;4.32;;
5912;SDS011;2982;42.684;23.356;2022-10-31T11:01:22;8.57;;;3.97;;
5912;SDS011;2982;42.684;23.356;2022-10-31T11:03:48;5.80;;;4.88;;
5912;SDS011;2982;42.684;23.356;2022-10-31T11:06:17;8.85;;;4.47;;
5912;SDS011;2982;42.684;23.356;2022-10-31T11:08:44;8.13;;;2.85;;
5912;SDS011;2982;42.684;23.356;2022-10-31T11:11:25;4.18;;;3.22;;
5912;SDS011;2982;42.684;23.356;2022-10-31T11:13:56;4.90;;;2.60;;
5912;SDS011;2982;42.684;23.356;2022-10-31T11:16:38;6.32;;;3.72;;
5912;SDS011;2982;42.684;23.356;2022-10-31T11:21:36;7.05;;;3.38;;
5912;SDS011;2982;42.684;23.356;2022-10-31T11:24:02;5.20;;;3.13;;
5912;SDS011;2982;42.684;23.356;2022-10-31T11:26:28;7.75;;;2.95;;
5912;SDS011;2982;42.684;23.356;2022-10-31T11:28:58;6.97;;;3.60;;
5912;SDS011;2982;42.684;23.356;2022-10-31T11:31:24;6.82;;;4.00;;
5912;SDS011;2982;42.684;23.356;2022-10-31T11:33:59;5.80;;;3.50;;
5912;SDS011;2982;42.684;23.356;2022-10-31T11:36:30;4.07;;;3.67;;
5912;SDS011;2982;42.684;23.356;2022-10-31T11:38:57;4.45;;;3.38;;
5912;SDS011;2982;42.684;23.356;2022-10-31T11:43:57;3.80;;;2.97;;
5912;SDS011;2982;42.684;23.356;2022-10-31T11:46:31;3.63;;;2.85;;
5912;SDS011;2982;42.684;23.356;2022-10-31T11:49:00;7.63;;;2.58;;
5912;SDS011;2982;42.684;23.356;2022-10-31T11:51:27;3.75;;;3.22;;
5912;SDS011;2982;42.684;23.356;2022-10-31T11:53:57;5.20;;;3.15;;
5912;SDS011;2982;42.684;23.356;2022-10-31T11:56:24;6.10;;;3.10;;
5912;SDS011;2982;42.684;23.356;2022-10-31T12:01:59;5.60;;;3.03;;
5912;SDS011;2982;42.684;23.356;2022-10-31T12:04:28;4.75;;;3.00;;
5912;SDS011;2982;42.684;23.356;2022-10-31T12:07:03;3.03;;;2.58;;
5912;SDS011;2982;42.684;23.356;2022-10-31T12:09:29;11.98;;;2.60;;
5912;SDS011;2982;42.684;23.356;2022-10-31T12:17:36;3.20;;;2.63;;
5912;SDS011;2982;42.684;23.356;2022-10-31T12:23:01;6.85;;;2.75;;
5912;SDS011;2982;42.684;23.356;2022-10-31T12:28:00;9.15;;;3.53;;
5912;SDS011;2982;42.684;23.356;2022-10-31T12:35:57;5.05;;;2.75;;
5912;SDS011;2982;42.684;23.356;2022-10-31T12:38:44;7.68;;;2.75;;
5912;SDS011;2982;42.684;23.356;2022-10-31T12:52:39;11.40;;;3.00;;
5912;SDS011;2982;42.684;23.356;2022-10-31T12:58:05;4.53;;;3.10;;
5912;SDS011;2982;42.684;23.356;2022-10-31T13:00:38;5.70;;;3.20;;
5912;SDS011;2982;42.684;23.356;2022-10-31T13:06:10;8.77;;;3.20;;
5912;SDS011;2982;42.684;23.356;2022-10-31T13:08:44;6.70;;;2.95;;
5912;SDS011;2982;42.684;23.356;2022-10-31T13:14:10;6.40;;;2.97;;
5912;SDS011;2982;42.684;23.356;2022-10-31T13:16:46;6.68;;;2.95;;
5912;SDS011;2982;42.684;23.356;2022-10-31T13:19:16;7.47;;;2.80;;
5912;SDS011;2982;42.684;23.356;2022-10-31T13:24:31;4.95;;;2.45;;
5912;SDS011;2982;42.684;23.356;2022-10-31T13:27:02;3.05;;;2.58;;
5912;SDS011;2982;42.684;23.356;2022-10-31T13:29:38;6.63;;;3.10;;
5912;SDS011;2982;42.684;23.356;2022-10-31T13:32:11;8.48;;;2.60;;
5912;SDS011;2982;42.684;23.356;2022-10-31T13:34:40;4.10;;;2.72;;
5912;SDS011;2982;42.684;23.356;2022-10-31T13:42:55;3.05;;;2.05;;
5912;SDS011;2982;42.684;23.356;2022-10-31T13:45:26;10.10;;;2.85;;
5912;SDS011;2982;42.684;23.356;2022-10-31T13:47:56;3.78;;;2.50;;
5912;SDS011;2982;42.684;23.356;2022-10-31T13:50:42;8.00;;;2.75;;
5912;SDS011;2982;42.684;23.356;2022-10-31T13:53:20;4.28;;;2.53;;
5912;SDS011;2982;42.684;23.356;2022-10-31T13:55:47;7.35;;;2.35;;
5912;SDS011;2982;42.684;23.356;2022-10-31T13:58:30;6.35;;;2.85;;
5912;SDS011;2982;42.684;23.356;2022-10-31T14:03:44;10.80;;;3.17;;
5912;SDS011;2982;42.684;23.356;2022-10-31T14:06:20;7.15;;;2.58;;
5912;SDS011;2982;42.684;23.356;2022-10-31T14:08:49;5.18;;;2.95;;
5912;SDS011;2982;42.684;23.356;2022-10-31T14:11:22;9.25;;;2.75;;
5912;SDS011;2982;42.684;23.356;2022-10-31T14:13:50;8.98;;;2.70;;
5912;SDS011;2982;42.684;23.356;2022-10-31T14:16:34;13.05;;;3.40;;
5912;SDS011;2982;42.684;23.356;2022-10-31T14:19:06;6.65;;;3.03;;
5912;SDS011;2982;42.684;23.356;2022-10-31T14:21:40;8.93;;;3.58;;
5912;SDS011;2982;42.684;23.356;2022-10-31T14:29:29;8.70;;;3.33;;
5912;SDS011;2982;42.684;23.356;2022-10-31T14:34:34;12.77;;;3.13;;
5912;SDS011;2982;42.684;23.356;2022-10-31T14:43:05;21.05;;;2.88;;
5912;SDS011;2982;42.684;23.356;2022-10-31T14:48:09;14.38;;;3.80;;
5912;SDS011;2982;42.684;23.356;2022-10-31T14:50:42;6.28;;;3.00;;
5912;SDS011;2982;42.684;23.356;2022-10-31T14:53:27;5.32;;;3.08;;
5912;SDS011;2982;42.684;23.356;2022-10-31T14:55:56;7.65;;;3.63;;
5912;SDS011;2982;42.684;23.356;2022-10-31T14:58:24;7.93;;;3.30;;
5912;SDS011;2982;42.684;23.356;2022-10-31T15:01:00;3.90;;;2.45;;
5912;SDS011;2982;42.684;23.356;2022-10-31T15:03:33;17.88;;;3.78;;
5912;SDS011;2982;42.684;23.356;2022-10-31T15:06:05;6.72;;;3.38;;
5912;SDS011;2982;42.684;23.356;2022-10-31T15:08:40;9.05;;;3.97;;
5912;SDS011;2982;42.684;23.356;2022-10-31T15:11:14;14.68;;;8.30;;
5912;SDS011;2982;42.684;23.356;2022-10-31T15:13:41;7.35;;;3.10;;
5912;SDS011;2982;42.684;23.356;2022-10-31T15:16:11;7.50;;;3.10;;
5912;SDS011;2982;42.684;23.356;2022-10-31T15:18:44;7.68;;;3.63;;
5912;SDS011;2982;42.684;23.356;2022-10-31T15:21:14;10.00;;;3.58;;
5912;SDS011;2982;42.684;23.356;2022-10-31T15:23:41;8.90;;;2.97;;
5912;SDS011;2982;42.684;23.356;2022-10-31T15:26:11;6.75;;;3.72;;
5912;SDS011;2982;42.684;23.356;2022-10-31T15:28:42;16.75;;;4.53;;
5912;SDS011;2982;42.684;23.356;2022-10-31T15:31:15;15.43;;;3.22;;
5912;SDS011;2982;42.684;23.356;2022-10-31T15:33:42;8.05;;;2.78;;
5912;SDS011;2982;42.684;23.356;2022-10-31T15:36:17;10.75;;;3.00;;
5912;SDS011;2982;42.684;23.356;2022-10-31T15:38:44;8.45;;;2.58;;
5912;SDS011;2982;42.684;23.356;2022-10-31T15:41:21;12.15;;;2.95;;
5912;SDS011;2982;42.684;23.356;2022-10-31T15:43:47;10.65;;;2.97;;
5912;SDS011;2982;42.684;23.356;2022-10-31T15:46:13;5.90;;;2.70;;
5912;SDS011;2982;42.684;23.356;2022-10-31T15:48:38;16.05;;;2.80;;
5912;SDS011;2982;42.684;23.356;2022-10-31T15:51:09;15.85;;;2.80;;
5912;SDS011;2982;42.684;23.356;2022-10-31T15:56:12;14.52;;;3.00;;
5912;SDS011;2982;42.684;23.356;2022-10-31T15:58:44;12.43;;;3.20;;
5912;SDS011;2982;42.684;23.356;2022-10-31T16:06:35;18.45;;;4.43;;
5912;SDS011;2982;42.684;23.356;2022-10-31T16:09:01;21.42;;;4.68;;
5912;SDS011;2982;42.684;23.356;2022-10-31T16:11:29;19.23;;;5.07;;
5912;SDS011;2982;42.684;23.356;2022-10-31T16:14:06;19.98;;;5.10;;
5912;SDS011;2982;42.684;23.356;2022-10-31T16:16:46;16.23;;;4.82;;
5912;SDS011;2982;42.684;23.356;2022-10-31T16:19:21;23.98;;;4.57;;
5912;SDS011;2982;42.684;23.356;2022-10-31T16:21:50;17.98;;;5.53;;
5912;SDS011;2982;42.684;23.356;2022-10-31T16:26:53;17.75;;;6.25;;
5912;SDS011;2982;42.684;23.356;2022-10-31T16:29:25;23.20;;;6.18;;
5912;SDS011;2982;42.684;23.356;2022-10-31T16:31:58;25.63;;;7.07;;
5912;SDS011;2982;42.684;23.356;2022-10-31T16:34:23;14.63;;;6.22;;
5912;SDS011;2982;42.684;23.356;2022-10-31T16:36:49;17.25;;;5.78;;
5912;SDS011;2982;42.684;23.356;2022-10-31T16:39:15;20.33;;;6.60;;
5912;SDS011;2982;42.684;23.356;2022-10-31T16:41:41;27.02;;;8.45;;
5912;SDS011;2982;42.684;23.356;2022-10-31T16:44:15;23.52;;;7.97;;
5912;SDS011;2982;42.684;23.356;2022-10-31T16:47:04;25.45;;;7.70;;
5912;SDS011;2982;42.684;23.356;2022-10-31T16:49:33;14.45;;;7.38;;
5912;SDS011;2982;42.684;23.356;2022-10-31T16:51:58;32.53;;;9.25;;
5912;SDS011;2982;42.684;23.356;2022-10-31T16:54:23;19.77;;;7.30;;
5912;SDS011;2982;42.684;23.356;2022-10-31T16:56:49;25.08;;;8.25;;
5912;SDS011;2982;42.684;23.356;2022-10-31T16:59:14;20.30;;;8.10;;
5912;SDS011;2982;42.684;23.356;2022-10-31T17:01:40;39.85;;;9.05;;
5912;SDS011;2982;42.684;23.356;2022-10-31T17:04:11;24.60;;;8.15;;
5912;SDS011;2982;42.684;23.356;2022-10-31T17:06:38;23.15;;;7.25;;
5912;SDS011;2982;42.684;23.356;2022-10-31T17:09:03;22.00;;;7.18;;
5912;SDS011;2982;42.684;23.356;2022-10-31T17:11:29;22.08;;;6.82;;
5912;SDS011;2982;42.684;23.356;2022-10-31T17:13:54;25.55;;;7.93;;
5912;SDS011;2982;42.684;23.356;2022-10-31T17:16:20;28.50;;;8.30;;
5912;SDS011;2982;42.684;23.356;2022-10-31T17:18:45;33.28;;;8.32;;
5912;SDS011;2982;42.684;23.356;2022-10-31T17:21:16;25.23;;;9.93;;
5912;SDS011;2982;42.684;23.356;2022-10-31T17:23:47;24.58;;;7.80;;
5912;SDS011;2982;42.684;23.356;2022-10-31T17:26:14;13.43;;;5.60;;
5912;SDS011;2982;42.684;23.356;2022-10-31T17:28:39;14.63;;;6.82;;
5912;SDS011;2982;42.684;23.356;2022-10-31T17:31:05;11.60;;;6.10;;
5912;SDS011;2982;42.684;23.356;2022-10-31T17:33:30;19.42;;;6.53;;
5912;SDS011;2982;42.684;23.356;2022-10-31T17:35:57;21.48;;;9.00;;
5912;SDS011;2982;42.684;23.356;2022-10-31T17:38:23;31.85;;;13.90;;